createdAt,value
2023-04-07T00:01:00.915Z,100480.34
2023-04-07T00:06:02.629Z,100474.53
2023-04-07T00:11:04.282Z,100471.44
2023-04-07T00:16:06.269Z,100476.34
2023-04-07T00:21:07.924Z,100479.00
2023-04-07T00:26:09.572Z,100471.56
2023-04-07T00:31:12.352Z,100474.97
2023-04-07T00:36:14.033Z,100478.38
2023-04-07T00:41:16.014Z,100470.63
2023-04-07T00:46:19.766Z,100468.53
2023-04-07T00:51:22.612Z,100462.03
2023-04-07T00:56:24.259Z,100461.41
2023-04-07T01:01:29.719Z,100453.88
2023-04-07T01:06:36.658Z,100441.28
2023-04-07T01:11:58.052Z,100433.09
2023-04-07T01:17:01.250Z,100434.06
2023-04-07T01:22:08.843Z,100431.75
2023-04-07T01:27:34.128Z,100439.78
2023-04-07T01:32:37.143Z,100428.78
2023-04-07T01:37:39.449Z,100424.41
2023-04-07T01:42:41.655Z,100420.91
2023-04-07T01:47:43.815Z,100419.53
2023-04-07T01:52:46.298Z,100418.38
2023-04-07T01:57:47.965Z,100414.56
2023-04-07T02:02:59.520Z,100416.88
2023-04-07T02:08:04.189Z,100421.56
2023-04-07T02:13:10.077Z,100412.22
2023-04-07T02:18:14.006Z,100411.28
2023-04-07T02:23:16.424Z,100403.44
2023-04-07T02:28:18.210Z,100412.09
2023-04-07T02:33:20.600Z,100402.66
2023-04-07T02:38:22.216Z,100397.56
2023-04-07T02:43:23.820Z,100396.22
2023-04-07T02:48:26.362Z,100392.16
2023-04-07T02:53:27.976Z,100393.75
2023-04-07T02:58:29.630Z,100393.34
2023-04-07T03:03:31.685Z,100386.44
2023-04-07T03:08:42.715Z,100389.72
2023-04-07T03:13:44.370Z,100392.97
2023-04-07T03:18:46.227Z,100392.03
2023-04-07T03:23:48.546Z,100378.00
2023-04-07T03:28:50.332Z,100370.66
2023-04-07T03:33:53.318Z,100380.59
2023-04-07T03:38:56.694Z,100373.72
2023-04-07T03:43:58.458Z,100365.56
2023-04-07T03:49:01.297Z,100364.50
2023-04-07T03:54:06.695Z,100362.06
2023-04-07T03:59:15.033Z,100371.56
2023-04-07T04:04:28.561Z,100377.41
2023-04-07T04:09:31.445Z,100374.94
2023-04-07T04:14:33.977Z,100378.66
2023-04-07T04:19:37.861Z,100377.56
2023-04-07T04:24:48.389Z,100376.31
2023-04-07T04:29:50.031Z,100374.59
2023-04-07T04:34:56.701Z,100375.00
2023-04-07T04:39:59.551Z,100380.91
2023-04-07T04:45:01.426Z,100381.38
2023-04-07T04:50:06.683Z,100379.59
2023-04-07T04:55:14.407Z,100383.09
2023-04-07T05:00:18.022Z,100378.94
2023-04-07T05:05:22.152Z,100384.03
2023-04-07T05:10:26.413Z,100377.56
2023-04-07T05:15:29.632Z,100388.00
2023-04-07T05:20:32.043Z,100380.06
2023-04-07T05:25:33.746Z,100377.56
2023-04-07T05:30:38.861Z,100378.97
2023-04-07T05:35:40.851Z,100374.91
2023-04-07T05:40:42.907Z,100375.94
2023-04-07T05:45:49.683Z,100378.50
2023-04-07T05:50:52.019Z,100382.97
2023-04-07T05:55:54.897Z,100369.22
2023-04-07T06:01:10.142Z,100366.88
2023-04-07T06:06:11.996Z,100378.75
2023-04-07T06:11:13.820Z,100376.94
2023-04-07T06:16:17.385Z,100373.66
2023-04-07T06:21:19.974Z,100371.69
2023-04-07T06:26:21.935Z,100371.25
2023-04-07T06:31:23.629Z,100369.41
2023-04-07T06:36:27.715Z,100368.84
2023-04-07T06:41:29.355Z,100365.47
2023-04-07T06:46:31.102Z,100364.19
2023-04-07T06:51:33.114Z,100368.13
2023-04-07T06:56:34.764Z,100366.38
2023-04-07T07:01:37.792Z,100359.22
2023-04-07T07:06:39.680Z,100359.03
2023-04-07T07:11:41.386Z,100363.88
2023-04-07T07:16:43.027Z,100362.91
2023-04-07T07:21:44.936Z,100366.06
2023-04-07T07:26:46.595Z,100367.09
2023-04-07T07:31:48.300Z,100373.63
2023-04-07T07:36:49.924Z,100373.78
2023-04-07T07:41:51.934Z,100381.97
2023-04-07T07:46:53.604Z,100376.28
2023-04-07T07:51:55.261Z,100385.34
2023-04-07T07:56:57.435Z,100388.66
2023-04-07T08:01:59.106Z,100389.25
2023-04-07T08:07:00.705Z,100379.91
2023-04-07T08:12:03.608Z,100386.53
2023-04-07T08:17:05.459Z,100388.47
2023-04-07T08:22:07.147Z,100384.31
2023-04-07T08:27:08.774Z,100387.66
2023-04-07T08:32:10.744Z,100393.00
2023-04-07T08:37:12.405Z,100390.25
2023-04-07T08:42:14.515Z,100397.88
2023-04-07T08:47:17.753Z,100378.50
2023-04-07T08:52:23.041Z,100380.22
2023-04-07T08:57:24.741Z,100373.44
2023-04-07T09:02:26.749Z,100380.50
2023-04-07T09:07:28.599Z,100377.44
2023-04-07T09:12:31.429Z,100376.69
2023-04-07T09:17:33.088Z,100376.56
2023-04-07T09:22:35.929Z,100372.34
2023-04-07T09:27:37.916Z,100375.44
2023-04-07T09:32:39.695Z,100365.16
2023-04-07T09:37:42.501Z,100368.41
2023-04-07T09:42:48.339Z,100359.28
2023-04-07T09:47:50.066Z,100360.41
2023-04-07T09:52:52.527Z,100353.22
2023-04-07T09:57:57.622Z,100355.31
2023-04-07T10:02:59.666Z,100358.81
2023-04-07T10:08:02.631Z,100352.81
2023-04-07T10:13:05.797Z,100350.53
2023-04-07T10:18:07.595Z,100363.63
2023-04-07T10:24:15.802Z,100363.34
2023-04-07T10:29:18.190Z,100359.97
2023-04-07T10:34:53.362Z,100350.34
2023-04-07T10:40:20.020Z,100354.16
2023-04-07T10:45:54.182Z,100361.34
2023-04-07T10:51:05.083Z,100358.38
2023-04-07T10:56:07.102Z,100355.06
2023-04-07T11:01:11.859Z,100356.78
2023-04-07T11:06:14.369Z,100359.88
2023-04-07T11:11:19.567Z,100354.97
2023-04-07T11:16:35.733Z,100343.53
2023-04-07T11:21:37.426Z,100352.00
2023-04-07T11:26:40.574Z,100352.53
2023-04-07T11:31:48.366Z,100350.13
2023-04-07T11:36:49.981Z,100349.53
2023-04-07T11:41:51.635Z,100344.19
2023-04-07T11:47:01.131Z,100343.00
2023-04-07T11:52:09.324Z,100335.41
2023-04-07T11:57:12.860Z,100345.06
2023-04-07T12:02:31.709Z,100333.03
2023-04-07T12:07:33.661Z,100339.09
2023-04-07T12:12:35.282Z,100336.59
2023-04-07T12:17:36.897Z,100330.72
2023-04-07T12:22:38.565Z,100334.31
2023-04-07T12:27:43.622Z,100327.66
2023-04-07T12:32:45.668Z,100330.13
2023-04-07T12:37:49.610Z,100327.19
2023-04-07T12:42:52.057Z,100320.44
2023-04-07T12:47:53.753Z,100322.13
2023-04-07T12:52:55.506Z,100327.97
2023-04-07T12:57:57.127Z,100329.47
2023-04-07T13:02:58.954Z,100315.81
2023-04-07T13:08:00.766Z,100325.47
2023-04-07T13:13:02.430Z,100326.16
2023-04-07T13:18:04.192Z,100320.72
2023-04-07T13:23:09.673Z,100321.81
2023-04-07T13:28:12.217Z,100321.78
2023-04-07T13:33:13.812Z,100311.75
2023-04-07T13:38:15.701Z,100331.13
2023-04-07T13:43:18.987Z,100316.00
2023-04-07T13:48:20.867Z,100318.97
2023-04-07T13:53:23.220Z,100320.25
2023-04-07T13:58:25.225Z,100301.38
2023-04-07T14:03:27.833Z,100309.00
2023-04-07T14:08:29.697Z,100299.69
2023-04-07T14:13:31.496Z,100301.72
2023-04-07T14:18:33.274Z,100300.09
2023-04-07T14:23:37.566Z,100298.22
2023-04-07T14:28:39.837Z,100302.13
2023-04-07T14:33:42.799Z,100297.16
2023-04-07T14:38:45.538Z,100298.06
2023-04-07T14:43:48.413Z,100301.72
2023-04-07T14:48:52.491Z,100298.97
2023-04-07T14:53:56.247Z,100311.78
2023-04-07T14:58:57.965Z,100305.47
2023-04-07T15:04:01.034Z,100299.81
2023-04-07T15:09:02.760Z,100311.44
2023-04-07T15:14:06.549Z,100313.47
2023-04-07T15:19:08.181Z,100309.25
2023-04-07T15:24:09.816Z,100310.56
2023-04-07T15:29:11.445Z,100313.38
2023-04-07T15:34:13.982Z,100312.53
2023-04-07T15:39:16.778Z,100308.88
2023-04-07T15:44:21.591Z,100317.09
2023-04-07T15:49:26.049Z,100327.69
2023-04-07T15:54:27.876Z,100323.31
2023-04-07T15:59:30.962Z,100321.13
2023-04-07T16:04:32.833Z,100320.34
2023-04-07T16:09:34.579Z,100327.63
2023-04-07T16:14:36.406Z,100338.16
2023-04-07T16:19:38.144Z,100345.19
2023-04-07T16:24:39.837Z,100348.44
2023-04-07T16:29:41.513Z,100350.97
2023-04-07T16:34:43.127Z,100354.06
2023-04-07T16:39:44.719Z,100355.03
2023-04-07T16:44:46.458Z,100362.50
2023-04-07T16:49:48.042Z,100369.31
2023-04-07T16:54:49.964Z,100377.03
2023-04-07T16:59:51.566Z,100380.94
2023-04-07T17:04:53.745Z,100386.19
2023-04-07T17:09:55.352Z,100391.66
2023-04-07T17:14:56.962Z,100406.78
2023-04-07T17:19:59.676Z,100400.53
2023-04-07T17:25:01.286Z,100407.72
2023-04-07T17:30:04.000Z,100417.94
2023-04-07T17:35:05.964Z,100417.97
2023-04-07T17:40:08.319Z,100417.44
2023-04-07T17:45:10.742Z,100435.09
2023-04-07T17:50:12.367Z,100435.44
2023-04-07T17:55:14.150Z,100450.13
2023-04-07T18:00:16.066Z,100453.19
2023-04-07T18:05:17.681Z,100454.47
2023-04-07T18:10:19.387Z,100460.38
2023-04-07T18:15:21.106Z,100460.91
2023-04-07T18:20:22.940Z,100469.16
2023-04-07T18:25:24.630Z,100480.50
2023-04-07T18:30:26.420Z,100490.16
2023-04-07T18:35:28.585Z,100492.66
2023-04-07T18:40:32.717Z,100496.22
2023-04-07T18:45:36.796Z,100488.25
2023-04-07T18:50:38.635Z,100511.00
2023-04-07T18:55:40.337Z,100516.25
2023-04-07T19:00:42.508Z,100516.78
2023-04-07T19:05:47.212Z,100516.91
2023-04-07T19:10:51.068Z,100518.75
2023-04-07T19:15:53.069Z,100528.03
2023-04-07T19:20:55.275Z,100536.84
2023-04-07T19:25:56.918Z,100529.13
2023-04-07T19:30:58.664Z,100539.69
2023-04-07T19:36:00.807Z,100544.38
2023-04-07T19:41:03.217Z,100542.09
2023-04-07T19:46:06.286Z,100536.31
2023-04-07T19:51:08.062Z,100540.75
2023-04-07T19:56:11.030Z,100533.63
2023-04-07T20:01:19.324Z,100545.59
2023-04-07T20:06:24.671Z,100540.66
2023-04-07T20:11:26.398Z,100544.25
2023-04-07T20:16:31.570Z,100537.97
2023-04-07T20:21:33.176Z,100545.97
2023-04-07T20:26:34.838Z,100545.84
2023-04-07T20:31:36.576Z,100540.50
2023-04-07T20:36:38.240Z,100543.03
2023-04-07T20:41:42.761Z,100541.84
2023-04-07T20:46:46.268Z,100545.50
2023-04-07T20:51:48.139Z,100541.56
2023-04-07T20:56:50.149Z,100535.28
2023-04-07T21:01:52.145Z,100538.06
2023-04-07T21:06:53.910Z,100540.38
2023-04-07T21:11:55.654Z,100535.34
2023-04-07T21:16:57.336Z,100532.53
2023-04-07T21:22:00.466Z,100532.84
2023-04-07T21:27:02.211Z,100535.03
2023-04-07T21:32:04.068Z,100534.06
2023-04-07T21:37:06.022Z,100529.91
2023-04-07T21:42:07.624Z,100523.97
2023-04-07T21:47:09.405Z,100533.16
2023-04-07T21:52:10.995Z,100539.34
2023-04-07T21:57:13.535Z,100538.31
2023-04-07T22:02:15.340Z,100533.00
2023-04-07T22:07:17.040Z,100533.59
2023-04-07T22:12:18.695Z,100530.94
2023-04-07T22:17:20.304Z,100533.38
2023-04-07T22:22:21.928Z,100532.41
2023-04-07T22:27:23.506Z,100529.16
2023-04-07T22:32:25.351Z,100534.09
2023-04-07T22:37:27.216Z,100534.13
2023-04-07T22:42:28.818Z,100530.50
2023-04-07T22:47:30.512Z,100542.22
2023-04-07T22:52:32.115Z,100529.28
2023-04-07T22:57:33.734Z,100534.09
2023-04-07T23:02:35.571Z,100534.25
2023-04-07T23:07:37.633Z,100537.75
2023-04-07T23:12:39.280Z,100534.72
2023-04-07T23:17:41.168Z,100536.28
2023-04-07T23:22:42.823Z,100542.09
2023-04-07T23:27:44.566Z,100536.84
2023-04-07T23:32:46.314Z,100535.56
2023-04-07T23:37:49.338Z,100533.50
2023-04-07T23:42:51.430Z,100537.38
2023-04-07T23:47:53.106Z,100535.31
2023-04-07T23:52:55.514Z,100524.91
2023-04-07T23:57:57.378Z,100531.56
